Time;durP1;ratioP1;P1;durP2;ratioP2;P2;SDS_P1;SDS_P2;PMS_P1;PMS_P2;Temp;Humidity;BMP_temperature;BMP_pressure;BME280_temperature;BME280_humidity;BME280_pressure;Samples;Min_cycle;Max_cycle;Signal;HPM_P1;HPM_P2
2021/10/15 00:02:17;;;;;;;9.23;4.20;;;;;;;;;;5019078;28;19925;-59
2021/10/15 00:04:44;;;;;;;10.82;4.00;;;;;;;;;;5017910;28;20046;-59
2021/10/15 00:07:11;;;;;;;12.93;4.47;;;;;;;;;;5020622;28;20034;-60
2021/10/15 00:09:37;;;;;;;10.98;4.53;;;;;;;;;;5015908;28;20033;-58
2021/10/15 00:12:06;;;;;;;11.20;4.20;;;;;;;;;;5022830;28;20124;-58
2021/10/15 00:14:32;;;;;;;12.85;4.93;;;;;;;;;;5024921;28;20053;-60
2021/10/15 00:16:59;;;;;;;9.77;4.50;;;;;;;;;;5021471;28;20115;-58
2021/10/15 00:19:26;;;;;;;14.93;4.80;;;;;;;;;;5023890;28;20034;-59
2021/10/15 00:21:54;;;;;;;10.07;4.63;;;;;;;;;;5022143;28;20449;-56
2021/10/15 00:24:21;;;;;;;13.43;4.20;;;;;;;;;;5024635;28;20052;-59
2021/10/15 00:26:47;;;;;;;12.65;3.97;;;;;;;;;;5024904;28;20483;-59
2021/10/15 00:29:15;;;;;;;12.48;4.28;;;;;;;;;;5025761;28;20295;-59
2021/10/15 00:31:42;;;;;;;14.35;4.43;;;;;;;;;;5041935;28;20160;-59
2021/10/15 00:34:08;;;;;;;8.82;4.40;;;;;;;;;;5037099;28;20045;-58
2021/10/15 00:36:34;;;;;;;10.15;4.38;;;;;;;;;;5024577;28;20110;-58
2021/10/15 00:39:01;;;;;;;12.45;4.68;;;;;;;;;;5023299;28;20132;-58
2021/10/15 00:41:28;;;;;;;12.63;4.47;;;;;;;;;;5038468;28;20049;-60
2021/10/15 00:44:02;;;;;;;10.90;4.40;;;;;;;;;;5044738;28;20042;-58
2021/10/15 00:46:30;;;;;;;14.75;4.38;;;;;;;;;;5020975;28;20046;-59
2021/10/15 00:48:57;;;;;;;11.02;4.60;;;;;;;;;;5024371;28;20119;-60
2021/10/15 00:51:25;;;;;;;10.38;4.43;;;;;;;;;;5019985;28;20038;-57
2021/10/15 00:53:52;;;;;;;11.35;4.80;;;;;;;;;;5038672;28;20041;-57
2021/10/15 00:56:18;;;;;;;9.48;4.38;;;;;;;;;;5025828;28;20041;-59
2021/10/15 00:58:45;;;;;;;13.77;4.60;;;;;;;;;;5021953;28;20109;-61
2021/10/15 01:01:11;;;;;;;10.73;4.22;;;;;;;;;;5025910;28;20053;-58
2021/10/15 01:03:39;;;;;;;7.25;3.58;;;;;;;;;;5023182;28;20110;-60
2021/10/15 01:06:06;;;;;;;10.40;4.67;;;;;;;;;;5020624;28;20042;-59
2021/10/15 01:08:39;;;;;;;8.85;4.13;;;;;;;;;;5024032;28;20128;-58
2021/10/15 01:11:05;;;;;;;10.23;4.28;;;;;;;;;;5024669;28;20176;-59
2021/10/15 01:13:33;;;;;;;13.20;4.53;;;;;;;;;;5043957;28;20085;-61
2021/10/15 01:16:03;;;;;;;17.90;5.28;;;;;;;;;;5038361;28;20551;-58
2021/10/15 01:18:31;;;;;;;12.90;4.75;;;;;;;;;;5043311;28;20045;-60
2021/10/15 01:20:59;;;;;;;8.67;4.27;;;;;;;;;;5034871;28;20115;-61
2021/10/15 01:23:26;;;;;;;11.68;4.15;;;;;;;;;;5024166;28;20053;-60
2021/10/15 01:25:53;;;;;;;11.18;4.78;;;;;;;;;;5024785;28;20096;-59
2021/10/15 01:28:20;;;;;;;16.20;4.85;;;;;;;;;;5037315;28;20095;-59
2021/10/15 01:30:47;;;;;;;9.95;4.28;;;;;;;;;;5041886;28;20037;-58
2021/10/15 01:33:13;;;;;;;12.50;4.70;;;;;;;;;;5039666;28;20042;-60
2021/10/15 01:35:40;;;;;;;13.25;4.95;;;;;;;;;;5044757;28;20045;-59
2021/10/15 01:38:09;;;;;;;12.30;5.10;;;;;;;;;;5024893;28;20579;-59
2021/10/15 01:40:36;;;;;;;14.00;5.32;;;;;;;;;;5021304;28;20059;-58
2021/10/15 01:43:02;;;;;;;13.00;5.18;;;;;;;;;;5028549;28;20042;-59
2021/10/15 01:45:29;;;;;;;14.35;4.90;;;;;;;;;;5022915;28;20050;-60
2021/10/15 01:48:00;;;;;;;10.95;5.28;;;;;;;;;;5020014;28;20475;-58
2021/10/15 01:50:29;;;;;;;11.05;4.93;;;;;;;;;;5022744;28;20539;-57
2021/10/15 01:52:56;;;;;;;10.68;5.20;;;;;;;;;;5020129;28;20034;-58
2021/10/15 01:55:24;;;;;;;10.60;4.82;;;;;;;;;;5025027;28;20042;-58
2021/10/15 01:57:51;;;;;;;11.60;4.65;;;;;;;;;;5025340;28;20487;-58
2021/10/15 02:00:18;;;;;;;11.18;4.97;;;;;;;;;;5042214;28;20034;-57
2021/10/15 02:02:44;;;;;;;12.63;4.75;;;;;;;;;;5036412;28;20134;-57
2021/10/15 02:05:12;;;;;;;11.73;5.05;;;;;;;;;;5021852;28;20033;-53
2021/10/15 02:07:39;;;;;;;15.43;5.28;;;;;;;;;;5019548;28;20164;-59
2021/10/15 02:10:06;;;;;;;12.35;5.00;;;;;;;;;;5022103;28;20168;-58
2021/10/15 02:12:34;;;;;;;11.88;4.68;;;;;;;;;;5038247;28;20049;-58
2021/10/15 02:15:00;;;;;;;12.37;4.90;;;;;;;;;;5036172;28;20049;-57
2021/10/15 02:17:28;;;;;;;14.13;5.18;;;;;;;;;;5021570;28;20602;-60
2021/10/15 02:19:54;;;;;;;19.73;6.00;;;;;;;;;;5033092;28;20041;-59
2021/10/15 02:22:21;;;;;;;12.60;5.20;;;;;;;;;;5028007;28;20106;-58
2021/10/15 02:24:47;;;;;;;12.93;5.13;;;;;;;;;;5040353;28;20049;-60
2021/10/15 02:27:14;;;;;;;11.15;5.25;;;;;;;;;;5042063;28;20044;-59
2021/10/15 02:29:42;;;;;;;13.20;5.40;;;;;;;;;;5028132;28;20096;-56
2021/10/15 02:32:08;;;;;;;15.20;5.20;;;;;;;;;;5022337;28;20046;-58
2021/10/15 02:34:40;;;;;;;12.07;5.00;;;;;;;;;;5027378;28;20033;-59
2021/10/15 02:37:07;;;;;;;17.00;5.43;;;;;;;;;;5041867;28;20049;-58
2021/10/15 02:39:33;;;;;;;11.43;5.10;;;;;;;;;;5032055;28;20049;-59
2021/10/15 02:42:00;;;;;;;12.95;5.00;;;;;;;;;;5019929;28;20042;-59
2021/10/15 02:44:26;;;;;;;11.60;5.00;;;;;;;;;;5022495;28;20487;-56
2021/10/15 02:46:54;;;;;;;12.23;5.00;;;;;;;;;;5023727;28;20042;-58
2021/10/15 02:49:21;;;;;;;11.48;4.85;;;;;;;;;;5019990;28;20127;-57
2021/10/15 02:51:47;;;;;;;10.93;4.68;;;;;;;;;;5042852;28;20183;-59
2021/10/15 02:54:14;;;;;;;19.52;5.03;;;;;;;;;;5040833;28;20387;-57
2021/10/15 02:56:42;;;;;;;9.00;4.70;;;;;;;;;;5020777;28;20041;-59
2021/10/15 02:59:09;;;;;;;11.30;4.65;;;;;;;;;;5021318;28;20430;-58
2021/10/15 03:01:35;;;;;;;15.55;5.03;;;;;;;;;;5020136;28;20038;-60
2021/10/15 03:04:03;;;;;;;9.65;5.10;;;;;;;;;;5022359;28;20042;-59
2021/10/15 03:06:30;;;;;;;10.47;5.23;;;;;;;;;;5017621;28;20050;-58
2021/10/15 03:08:57;;;;;;;12.30;5.00;;;;;;;;;;5022487;28;20709;-57
2021/10/15 03:11:26;;;;;;;10.05;4.60;;;;;;;;;;5018427;28;20131;-59
2021/10/15 03:13:52;;;;;;;18.55;5.63;;;;;;;;;;5018889;28;20056;-60
2021/10/15 03:16:19;;;;;;;11.57;5.05;;;;;;;;;;5021152;28;20025;-60
2021/10/15 03:18:47;;;;;;;10.68;5.25;;;;;;;;;;5020050;28;20074;-61
2021/10/15 03:21:14;;;;;;;16.58;5.50;;;;;;;;;;5018557;28;20045;-60
2021/10/15 03:23:41;;;;;;;14.73;5.80;;;;;;;;;;5052670;28;20045;-61
2021/10/15 03:26:07;;;;;;;11.80;5.30;;;;;;;;;;5034022;28;20041;-59
2021/10/15 03:28:36;;;;;;;14.60;5.05;;;;;;;;;;5014616;28;20041;-61
2021/10/15 03:31:02;;;;;;;13.68;5.57;;;;;;;;;;5016521;28;20119;-61
2021/10/15 03:33:29;;;;;;;13.77;5.35;;;;;;;;;;5021767;28;20061;-60
2021/10/15 03:35:55;;;;;;;12.73;5.28;;;;;;;;;;5021947;28;20042;-57
2021/10/15 03:38:25;;;;;;;10.65;4.80;;;;;;;;;;5019252;28;20041;-60
2021/10/15 03:40:51;;;;;;;12.55;6.00;;;;;;;;;;5020865;28;20449;-61
2021/10/15 03:43:17;;;;;;;15.40;5.68;;;;;;;;;;5018036;28;20107;-59
2021/10/15 03:45:46;;;;;;;11.13;5.30;;;;;;;;;;5023090;28;20034;-56
2021/10/15 03:48:13;;;;;;;16.50;5.90;;;;;;;;;;5031440;28;20061;-59
2021/10/15 03:50:39;;;;;;;12.88;5.63;;;;;;;;;;5042058;28;20119;-57
2021/10/15 03:53:07;;;;;;;13.48;5.47;;;;;;;;;;5028293;28;20037;-58
2021/10/15 03:55:36;;;;;;;17.93;5.60;;;;;;;;;;5025059;28;20065;-60
2021/10/15 03:58:02;;;;;;;16.30;5.53;;;;;;;;;;5023286;28;20327;-60
2021/10/15 04:00:29;;;;;;;13.32;5.05;;;;;;;;;;5024136;28;20047;-58
2021/10/15 04:02:56;;;;;;;9.88;5.15;;;;;;;;;;5022309;28;20104;-60
2021/10/15 04:05:22;;;;;;;14.68;5.43;;;;;;;;;;5026262;28;20046;-59
2021/10/15 04:07:51;;;;;;;11.40;4.97;;;;;;;;;;5019615;28;20046;-59
2021/10/15 04:10:17;;;;;;;18.20;5.93;;;;;;;;;;5023953;28;20048;-60
2021/10/15 04:12:45;;;;;;;10.77;5.28;;;;;;;;;;5019296;28;20061;-58
2021/10/15 04:15:12;;;;;;;13.43;5.07;;;;;;;;;;5024309;28;20051;-59
2021/10/15 04:17:40;;;;;;;14.25;5.22;;;;;;;;;;5022287;28;20279;-57
2021/10/15 04:20:07;;;;;;;;;;;;;;;;;;5021824;28;20058;-58
2021/10/15 04:22:33;;;;;;;9.88;4.70;;;;;;;;;;5026320;28;20295;-59
2021/10/15 04:25:00;;;;;;;13.85;4.70;;;;;;;;;;5022338;28;20045;-57
2021/10/15 04:27:29;;;;;;;12.75;5.60;;;;;;;;;;5023908;28;20045;-59
2021/10/15 04:29:55;;;;;;;;;;;;;;;;;;5020875;28;20045;-59
2021/10/15 04:32:23;;;;;;;10.57;5.50;;;;;;;;;;5022461;28;19928;-59
2021/10/15 04:34:49;;;;;;;12.93;5.83;;;;;;;;;;5021152;28;20056;-58
2021/10/15 04:37:17;;;;;;;12.30;5.88;;;;;;;;;;5023983;28;20037;-59
2021/10/15 04:39:44;;;;;;;17.45;5.45;;;;;;;;;;5027083;28;20050;-57
2021/10/15 04:42:10;;;;;;;15.60;4.85;;;;;;;;;;5024087;28;20046;-57
2021/10/15 04:44:36;;;;;;;13.15;5.15;;;;;;;;;;5026499;28;20475;-58
2021/10/15 04:47:03;;;;;;;12.35;5.25;;;;;;;;;;5043543;28;20037;-56
2021/10/15 04:49:31;;;;;;;13.45;5.47;;;;;;;;;;5033980;28;20069;-59
2021/10/15 04:51:58;;;;;;;11.10;5.22;;;;;;;;;;5023909;28;20030;-58
2021/10/15 04:54:24;;;;;;;13.95;4.57;;;;;;;;;;5019255;28;20061;-59
2021/10/15 04:56:51;;;;;;;19.63;6.07;;;;;;;;;;5023108;28;20058;-59
2021/10/15 04:59:18;;;;;;;13.27;6.18;;;;;;;;;;5020596;28;20029;-59
2021/10/15 05:01:44;;;;;;;16.33;6.28;;;;;;;;;;5022580;28;20049;-60
2021/10/15 05:04:11;;;;;;;13.60;5.35;;;;;;;;;;5023823;28;20041;-58
2021/10/15 05:06:39;;;;;;;15.55;5.65;;;;;;;;;;5021239;28;20139;-60
2021/10/15 05:09:25;;;;;;;12.77;6.37;;;;;;;;;;5021676;28;20058;-60
2021/10/15 05:11:51;;;;;;;21.33;7.80;;;;;;;;;;5019790;28;20303;-59
2021/10/15 05:14:18;;;;;;;17.15;6.47;;;;;;;;;;5022262;28;20124;-60
2021/10/15 05:16:44;;;;;;;15.13;6.03;;;;;;;;;;5028882;28;20064;-58
2021/10/15 05:19:11;;;;;;;12.15;6.00;;;;;;;;;;5035481;28;20041;-61
2021/10/15 05:21:39;;;;;;;13.63;5.97;;;;;;;;;;5041079;28;20038;-58
2021/10/15 05:24:05;;;;;;;16.37;6.60;;;;;;;;;;5034235;28;20054;-60
2021/10/15 05:26:32;;;;;;;16.50;6.28;;;;;;;;;;5028786;28;20306;-58
2021/10/15 05:28:59;;;;;;;14.23;6.47;;;;;;;;;;5029355;28;20045;-60
2021/10/15 05:31:25;;;;;;;13.65;5.57;;;;;;;;;;5041674;28;20043;-59
2021/10/15 05:33:52;;;;;;;14.05;6.25;;;;;;;;;;5039997;28;20057;-60
2021/10/15 05:36:18;;;;;;;14.73;7.30;;;;;;;;;;5023258;28;20034;-57
2021/10/15 05:38:47;;;;;;;17.48;7.40;;;;;;;;;;5037600;28;20052;-57
2021/10/15 05:41:14;;;;;;;11.77;5.43;;;;;;;;;;5030099;28;20053;-59
2021/10/15 05:43:41;;;;;;;13.35;6.40;;;;;;;;;;5025149;28;20053;-60
2021/10/15 05:46:07;;;;;;;15.73;6.07;;;;;;;;;;5022411;28;20053;-60
2021/10/15 05:48:34;;;;;;;16.40;7.13;;;;;;;;;;5017757;28;20053;-59
2021/10/15 05:51:00;;;;;;;14.27;6.85;;;;;;;;;;5020668;28;20066;-57
2021/10/15 05:53:27;;;;;;;14.27;6.10;;;;;;;;;;5042750;28;20049;-59
2021/10/15 05:56:21;;;;;;;16.73;6.45;;;;;;;;;;5030591;28;20471;-59
2021/10/15 05:58:50;;;;;;;18.35;8.40;;;;;;;;;;5026274;28;20053;-57
2021/10/15 06:01:20;;;;;;;19.50;6.97;;;;;;;;;;5022079;28;20464;-56
2021/10/15 06:03:53;;;;;;;14.05;6.70;;;;;;;;;;5036910;28;20033;-58
2021/10/15 06:14:33;;;;;;;17.15;6.53;;;;;;;;;;5022816;28;20078;-58
2021/10/15 06:17:06;;;;;;;14.18;5.80;;;;;;;;;;5024231;28;20053;-55
2021/10/15 06:19:42;;;;;;;17.10;6.43;;;;;;;;;;5000759;28;20516;-58
2021/10/15 06:22:08;;;;;;;17.05;6.35;;;;;;;;;;5004509;28;20045;-57
2021/10/15 06:24:35;;;;;;;11.93;5.70;;;;;;;;;;5035281;28;20416;-58
2021/10/15 06:27:04;;;;;;;17.70;7.43;;;;;;;;;;5022666;28;20046;-55
2021/10/15 06:29:30;;;;;;;15.88;6.00;;;;;;;;;;5002828;28;20058;-57
2021/10/15 06:31:57;;;;;;;15.60;6.95;;;;;;;;;;5000755;28;20042;-55
2021/10/15 06:34:23;;;;;;;13.05;5.70;;;;;;;;;;4999169;28;20049;-55
2021/10/15 06:36:50;;;;;;;16.27;6.70;;;;;;;;;;5006494;28;20061;-54
2021/10/15 06:39:16;;;;;;;19.80;6.22;;;;;;;;;;5007769;28;20046;-57
2021/10/15 06:41:45;;;;;;;20.25;6.45;;;;;;;;;;5002246;28;20046;-57
2021/10/15 06:44:16;;;;;;;12.88;6.60;;;;;;;;;;4998082;28;20049;-59
2021/10/15 06:46:43;;;;;;;17.45;7.10;;;;;;;;;;5001351;28;20050;-58
2021/10/15 06:49:10;;;;;;;14.00;6.55;;;;;;;;;;5000912;28;20034;-56
2021/10/15 06:51:36;;;;;;;16.63;6.30;;;;;;;;;;5001445;28;20045;-57
2021/10/15 06:54:03;;;;;;;12.57;5.63;;;;;;;;;;5001360;28;20034;-57
2021/10/15 06:56:31;;;;;;;15.00;6.63;;;;;;;;;;5005668;28;20030;-58
2021/10/15 06:58:59;;;;;;;15.57;5.97;;;;;;;;;;5001458;28;20042;-57
2021/10/15 07:01:27;;;;;;;13.32;6.18;;;;;;;;;;5003914;28;20053;-57
2021/10/15 07:03:53;;;;;;;7.38;2.80;;;;;;;;;;5000780;28;20049;-59
2021/10/15 07:06:20;;;;;;;7.57;2.65;;;;;;;;;;4999910;28;20042;-58
2021/10/15 07:08:47;;;;;;;4.60;1.60;;;;;;;;;;5002267;28;20053;-57
2021/10/15 07:11:14;;;;;;;6.25;1.63;;;;;;;;;;5009851;28;20492;-58
2021/10/15 07:13:41;;;;;;;2.80;1.27;;;;;;;;;;5000239;28;20514;-58
2021/10/15 07:16:08;;;;;;;3.47;1.13;;;;;;;;;;5003307;28;20038;-58
2021/10/15 07:18:38;;;;;;;2.08;0.95;;;;;;;;;;5038451;28;20087;-58
2021/10/15 07:21:04;;;;;;;1.42;0.77;;;;;;;;;;5033085;28;20054;-58
2021/10/15 07:23:31;;;;;;;1.08;0.70;;;;;;;;;;5017216;28;20140;-59
2021/10/15 07:25:57;;;;;;;0.65;0.38;;;;;;;;;;5009282;28;20132;-60
2021/10/15 07:28:24;;;;;;;3.67;0.75;;;;;;;;;;4999399;28;20096;-58
2021/10/15 07:30:50;;;;;;;1.80;0.88;;;;;;;;;;5003238;28;20127;-59
2021/10/15 07:33:17;;;;;;;2.10;0.60;;;;;;;;;;5037586;28;20044;-59
2021/10/15 07:35:45;;;;;;;0.40;0.40;;;;;;;;;;5031704;28;20057;-59
2021/10/15 07:38:12;;;;;;;1.90;0.60;;;;;;;;;;5002687;28;20484;-58
2021/10/15 07:40:41;;;;;;;3.20;0.70;;;;;;;;;;4996825;28;20057;-59
2021/10/15 07:43:07;;;;;;;2.67;0.43;;;;;;;;;;5002132;28;20089;-59
2021/10/15 07:45:34;;;;;;;1.88;0.50;;;;;;;;;;5002467;28;20124;-59
2021/10/15 07:48:01;;;;;;;1.95;0.77;;;;;;;;;;5016436;28;20038;-60
2021/10/15 07:50:27;;;;;;;6.63;1.48;;;;;;;;;;5038032;28;20038;-61
2021/10/15 07:52:55;;;;;;;4.47;0.82;;;;;;;;;;5016963;28;20052;-58
2021/10/15 07:55:22;;;;;;;3.37;0.80;;;;;;;;;;5001527;28;20192;-60
2021/10/15 07:57:51;;;;;;;1.75;0.50;;;;;;;;;;4999333;28;20057;-58
2021/10/15 08:00:18;;;;;;;4.72;0.63;;;;;;;;;;5000808;28;20421;-59
2021/10/15 08:02:44;;;;;;;1.75;0.50;;;;;;;;;;4998095;28;20120;-61
2021/10/15 08:05:13;;;;;;;4.80;0.60;;;;;;;;;;4999802;28;20136;-58
2021/10/15 08:07:39;;;;;;;1.58;0.47;;;;;;;;;;4998023;28;20046;-61
2021/10/15 08:10:09;;;;;;;3.55;0.60;;;;;;;;;;5000720;28;20152;-61
2021/10/15 08:12:37;;;;;;;5.03;0.60;;;;;;;;;;5004723;28;20045;-58
2021/10/15 08:15:03;;;;;;;1.95;0.77;;;;;;;;;;5021088;28;20122;-57
2021/10/15 08:17:30;;;;;;;3.72;0.80;;;;;;;;;;5017466;28;20468;-61
2021/10/15 08:19:56;;;;;;;6.80;0.88;;;;;;;;;;5020807;28;20077;-59
2021/10/15 08:22:23;;;;;;;2.30;0.60;;;;;;;;;;5011247;28;20465;-61
2021/10/15 08:24:49;;;;;;;2.63;0.60;;;;;;;;;;5001358;28;20050;-59
2021/10/15 08:27:19;;;;;;;3.70;0.90;;;;;;;;;;5002987;28;20324;-58
2021/10/15 08:29:46;;;;;;;2.38;0.68;;;;;;;;;;5019184;28;20057;-61
2021/10/15 08:32:12;;;;;;;1.95;0.60;;;;;;;;;;5020298;28;20065;-61
2021/10/15 08:34:39;;;;;;;4.22;0.85;;;;;;;;;;4999616;28;20118;-59
2021/10/15 08:37:06;;;;;;;5.22;0.80;;;;;;;;;;5002178;28;20139;-58
2021/10/15 08:39:32;;;;;;;3.60;0.77;;;;;;;;;;4996712;28;20112;-59
2021/10/15 08:42:00;;;;;;;2.00;0.73;;;;;;;;;;4993322;28;20048;-58
2021/10/15 08:44:34;;;;;;;3.72;0.70;;;;;;;;;;5009179;28;20054;-59
2021/10/15 08:47:01;;;;;;;2.45;0.68;;;;;;;;;;5024178;28;20045;-57
2021/10/15 08:49:27;;;;;;;2.42;1.00;;;;;;;;;;5020673;28;20378;-58
2021/10/15 08:51:54;;;;;;;2.42;0.90;;;;;;;;;;5039718;28;20029;-58
2021/10/15 08:54:20;;;;;;;1.80;0.70;;;;;;;;;;5012866;28;20061;-58
2021/10/15 08:56:47;;;;;;;4.53;0.82;;;;;;;;;;5005378;28;20135;-58
2021/10/15 08:59:19;;;;;;;4.57;0.70;;;;;;;;;;4999102;28;20049;-60
2021/10/15 09:01:48;;;;;;;9.13;0.90;;;;;;;;;;5003837;28;20116;-58
2021/10/15 09:04:18;;;;;;;3.20;0.80;;;;;;;;;;5000887;28;20050;-58
2021/10/15 09:06:44;;;;;;;2.47;0.60;;;;;;;;;;5002094;28;20500;-58
2021/10/15 09:09:11;;;;;;;3.00;0.82;;;;;;;;;;4999667;28;20058;-58
2021/10/15 09:11:38;;;;;;;3.25;0.75;;;;;;;;;;5021318;28;20480;-58
2021/10/15 09:14:10;;;;;;;13.77;1.27;;;;;;;;;;5022925;28;20104;-58
2021/10/15 09:16:54;;;;;;;6.00;0.93;;;;;;;;;;5020401;28;20101;-58
2021/10/15 09:19:22;;;;;;;6.78;1.10;;;;;;;;;;5026344;28;20053;-58
2021/10/15 09:22:02;;;;;;;3.83;1.17;;;;;;;;;;5036838;28;20038;-58
2021/10/15 09:24:36;;;;;;;9.32;1.00;;;;;;;;;;5025271;28;20049;-58
2021/10/15 09:27:10;;;;;;;2.85;0.90;;;;;;;;;;5041823;28;20121;-58
2021/10/15 09:29:40;;;;;;;4.68;1.23;;;;;;;;;;5041833;28;20519;-57
2021/10/15 09:32:08;;;;;;;15.18;1.20;;;;;;;;;;5034149;28;20050;-58
2021/10/15 09:34:35;;;;;;;7.45;0.90;;;;;;;;;;5007096;28;20040;-58
2021/10/15 09:37:02;;;;;;;4.13;0.90;;;;;;;;;;5037121;28;20134;-59
2021/10/15 09:39:30;;;;;;;6.15;1.10;;;;;;;;;;5044076;28;20044;-58
2021/10/15 09:41:57;;;;;;;4.60;0.93;;;;;;;;;;5040543;28;20050;-58
2021/10/15 09:44:30;;;;;;;4.28;0.85;;;;;;;;;;5040980;28;20168;-58
2021/10/15 09:47:13;;;;;;;7.90;1.00;;;;;;;;;;5035458;28;20037;-58
2021/10/15 09:49:48;;;;;;;8.50;0.77;;;;;;;;;;5021279;28;20034;-59
2021/10/15 09:52:22;;;;;;;4.70;1.02;;;;;;;;;;5031109;28;20049;-59
2021/10/15 09:54:54;;;;;;;6.35;0.70;;;;;;;;;;5043198;28;20319;-58
2021/10/15 09:57:30;;;;;;;7.45;0.90;;;;;;;;;;5041062;28;20047;-58
2021/10/15 09:59:57;;;;;;;7.80;1.35;;;;;;;;;;5041723;28;20037;-59
2021/10/15 10:02:24;;;;;;;7.55;0.95;;;;;;;;;;5035370;28;20049;-57
2021/10/15 10:04:52;;;;;;;8.00;1.00;;;;;;;;;;5021346;28;20056;-59
2021/10/15 10:07:23;;;;;;;6.95;1.23;;;;;;;;;;5028313;28;20041;-60
2021/10/15 10:09:50;;;;;;;5.05;0.85;;;;;;;;;;5042061;28;20056;-60
2021/10/15 10:12:19;;;;;;;7.80;0.82;;;;;;;;;;5034540;28;20064;-59
2021/10/15 10:14:46;;;;;;;11.25;1.70;;;;;;;;;;5040903;28;20048;-60
2021/10/15 10:17:20;;;;;;;9.55;1.00;;;;;;;;;;5035240;28;20217;-58
2021/10/15 10:19:48;;;;;;;4.55;0.88;;;;;;;;;;5021497;28;20049;-60
2021/10/15 10:22:19;;;;;;;8.02;1.25;;;;;;;;;;5011743;28;20202;-58
2021/10/15 10:24:48;;;;;;;13.40;1.02;;;;;;;;;;5041392;28;20037;-60
2021/10/15 10:27:25;;;;;;;7.78;0.82;;;;;;;;;;5035056;28;20049;-58
2021/10/15 10:29:54;;;;;;;11.35;1.20;;;;;;;;;;5013397;28;20120;-58
2021/10/15 10:32:20;;;;;;;;;;;;;;;;;;4998699;28;20053;-58
2021/10/15 10:34:47;;;;;;;4.50;0.68;;;;;;;;;;5000643;28;19919;-58
2021/10/15 10:37:16;;;;;;;5.72;0.75;;;;;;;;;;5001810;28;20104;-58
2021/10/15 10:39:43;;;;;;;6.22;0.88;;;;;;;;;;5001042;28;20280;-58
2021/10/15 10:42:11;;;;;;;4.77;0.90;;;;;;;;;;5006397;28;20074;-58
2021/10/15 10:44:38;;;;;;;8.55;0.85;;;;;;;;;;5016353;28;20059;-58
2021/10/15 10:47:11;;;;;;;8.57;1.00;;;;;;;;;;5022195;28;20069;-58
2021/10/15 10:49:38;;;;;;;11.45;1.30;;;;;;;;;;5003860;28;20083;-58
2021/10/15 10:52:19;;;;;;;4.95;0.70;;;;;;;;;;5002805;28;20177;-58
2021/10/15 10:54:48;;;;;;;5.78;1.10;;;;;;;;;;5011105;28;20042;-58
2021/10/15 10:57:26;;;;;;;9.10;0.88;;;;;;;;;;5021704;28;20056;-58
2021/10/15 10:59:54;;;;;;;8.93;0.88;;;;;;;;;;5033314;28;20049;-58
2021/10/15 11:02:21;;;;;;;8.37;0.70;;;;;;;;;;5037927;28;20041;-59
2021/10/15 11:04:58;;;;;;;5.43;0.70;;;;;;;;;;5038987;28;20076;-58
2021/10/15 11:07:27;;;;;;;6.20;0.73;;;;;;;;;;5042789;28;20051;-59
2021/10/15 11:09:55;;;;;;;8.75;0.80;;;;;;;;;;5046606;28;20182;-59
2021/10/15 11:12:22;;;;;;;5.07;0.85;;;;;;;;;;5046754;28;20041;-58
2021/10/15 11:14:53;;;;;;;7.65;0.82;;;;;;;;;;5032592;28;20045;-61
2021/10/15 11:17:21;;;;;;;6.88;0.55;;;;;;;;;;5053590;28;20042;-57
2021/10/15 11:19:47;;;;;;;6.18;0.80;;;;;;;;;;5023920;28;20167;-59
2021/10/15 11:22:14;;;;;;;6.35;0.60;;;;;;;;;;5037939;28;20460;-58
2021/10/15 11:24:54;;;;;;;5.15;1.02;;;;;;;;;;5022261;28;20109;-59
2021/10/15 11:27:22;;;;;;;5.00;1.00;;;;;;;;;;5030739;28;20042;-58
2021/10/15 11:29:49;;;;;;;7.78;0.95;;;;;;;;;;5016475;28;20165;-59
2021/10/15 11:32:28;;;;;;;8.05;0.70;;;;;;;;;;5020573;28;20033;-59
2021/10/15 11:35:03;;;;;;;7.15;0.90;;;;;;;;;;5005908;28;20055;-59
2021/10/15 11:37:40;;;;;;;3.42;0.70;;;;;;;;;;5017700;28;20061;-58
2021/10/15 11:40:15;;;;;;;5.88;0.93;;;;;;;;;;5003490;28;20512;-58
2021/10/15 11:42:43;;;;;;;5.65;0.93;;;;;;;;;;5010886;28;20107;-59
2021/10/15 11:45:26;;;;;;;5.75;0.93;;;;;;;;;;5003255;28;20054;-59
2021/10/15 11:47:59;;;;;;;3.45;0.70;;;;;;;;;;5011747;28;20070;-58
2021/10/15 11:50:37;;;;;;;10.60;0.80;;;;;;;;;;5007790;28;20054;-60
2021/10/15 11:53:04;;;;;;;4.18;0.95;;;;;;;;;;5036653;28;20122;-59
2021/10/15 11:55:32;;;;;;;8.85;1.02;;;;;;;;;;5037674;28;20121;-59
2021/10/15 11:58:17;;;;;;;6.93;1.00;;;;;;;;;;5021521;28;20048;-58
2021/10/15 12:00:58;;;;;;;9.82;1.00;;;;;;;;;;5014742;28;20173;-58
2021/10/15 12:03:27;;;;;;;5.07;1.05;;;;;;;;;;5016086;28;20495;-58
2021/10/15 12:05:54;;;;;;;11.13;1.88;;;;;;;;;;5017544;28;20124;-58
2021/10/15 12:08:22;;;;;;;4.60;0.70;;;;;;;;;;5019715;28;20588;-57
2021/10/15 12:10:48;;;;;;;4.47;0.93;;;;;;;;;;5022924;28;20058;-58
2021/10/15 12:13:15;;;;;;;7.20;1.00;;;;;;;;;;5019098;28;20038;-60
2021/10/15 12:15:42;;;;;;;11.65;1.10;;;;;;;;;;5022982;28;20085;-58
2021/10/15 12:18:10;;;;;;;8.10;1.10;;;;;;;;;;5034842;28;20041;-58
2021/10/15 12:20:38;;;;;;;10.77;1.30;;;;;;;;;;5043178;28;20044;-59
2021/10/15 12:23:06;;;;;;;10.32;1.15;;;;;;;;;;5039291;28;20053;-58
2021/10/15 12:25:32;;;;;;;7.63;1.10;;;;;;;;;;5046362;28;20045;-58
2021/10/15 12:28:10;;;;;;;8.70;1.33;;;;;;;;;;5029107;28;20397;-58
2021/10/15 12:30:37;;;;;;;6.30;1.20;;;;;;;;;;5023977;28;20111;-60
2021/10/15 12:33:06;;;;;;;8.75;1.60;;;;;;;;;;5022570;28;20046;-61
2021/10/15 12:35:33;;;;;;;6.15;1.20;;;;;;;;;;5034051;28;20119;-61
2021/10/15 12:38:02;;;;;;;11.52;1.15;;;;;;;;;;5032721;28;20413;-58
2021/10/15 12:40:30;;;;;;;13.00;1.30;;;;;;;;;;5023120;28;20503;-58
2021/10/15 12:43:06;;;;;;;17.23;1.20;;;;;;;;;;5026074;28;20045;-59
2021/10/15 12:45:34;;;;;;;18.00;1.15;;;;;;;;;;5043129;28;20297;-59
2021/10/15 12:48:02;;;;;;;10.27;1.10;;;;;;;;;;5039740;28;20029;-59
2021/10/15 12:50:29;;;;;;;7.68;1.33;;;;;;;;;;5042333;28;20294;-59
2021/10/15 12:52:55;;;;;;;10.98;1.90;;;;;;;;;;5038712;28;20057;-59
2021/10/15 12:55:24;;;;;;;11.95;1.35;;;;;;;;;;5021963;28;20046;-59
2021/10/15 12:57:52;;;;;;;10.55;1.25;;;;;;;;;;5021141;28;20160;-58
2021/10/15 13:00:20;;;;;;;16.55;1.48;;;;;;;;;;5041654;28;20087;-58
2021/10/15 13:02:47;;;;;;;10.60;1.90;;;;;;;;;;5043389;28;20052;-59
2021/10/15 13:05:14;;;;;;;8.80;1.40;;;;;;;;;;5041294;28;20037;-58
2021/10/15 13:07:44;;;;;;;12.73;1.58;;;;;;;;;;5046295;28;20042;-60
2021/10/15 13:10:15;;;;;;;10.43;1.40;;;;;;;;;;5024290;28;20038;-58
2021/10/15 13:12:43;;;;;;;13.88;1.13;;;;;;;;;;5040176;28;20067;-58
2021/10/15 13:15:10;;;;;;;12.50;1.65;;;;;;;;;;5041206;28;20041;-59
2021/10/15 13:17:37;;;;;;;11.05;1.33;;;;;;;;;;5023756;28;20040;-58
2021/10/15 13:20:05;;;;;;;10.25;1.48;;;;;;;;;;5018940;28;20034;-59
2021/10/15 13:22:31;;;;;;;9.10;1.40;;;;;;;;;;5027459;28;20072;-58
2021/10/15 13:24:58;;;;;;;10.20;1.50;;;;;;;;;;5031003;28;20050;-58
2021/10/15 13:27:25;;;;;;;12.10;1.25;;;;;;;;;;5022171;28;20495;-58
2021/10/15 13:29:53;;;;;;;8.02;1.10;;;;;;;;;;5020067;28;20053;-58
2021/10/15 13:32:19;;;;;;;10.00;1.20;;;;;;;;;;5023029;28;20052;-59
2021/10/15 13:34:48;;;;;;;8.57;0.95;;;;;;;;;;5024127;28;20045;-59
2021/10/15 13:37:18;;;;;;;9.00;1.10;;;;;;;;;;5042975;28;20037;-59
2021/10/15 13:39:47;;;;;;;6.30;1.83;;;;;;;;;;5034714;28;20143;-58
2021/10/15 13:45:14;;;;;;;6.53;1.08;;;;;;;;;;5019331;28;20057;-58
2021/10/15 13:47:43;;;;;;;9.93;1.35;;;;;;;;;;5042663;28;20554;-58
2021/10/15 13:50:08;;;;;;;;;;;;;;;;;;5039486;28;20123;-58
2021/10/15 13:52:35;;;;;;;7.63;1.17;;;;;;;;;;5023327;28;19932;-58
2021/10/15 13:55:05;;;;;;;11.75;1.42;;;;;;;;;;5021840;28;20283;-59
2021/10/15 13:57:32;;;;;;;9.18;1.45;;;;;;;;;;5041304;28;20037;-58
2021/10/15 14:00:06;;;;;;;7.20;1.35;;;;;;;;;;5043346;28;20037;-59
2021/10/15 14:02:33;;;;;;;8.95;1.30;;;;;;;;;;5014769;28;20104;-60
2021/10/15 14:05:03;;;;;;;8.18;1.52;;;;;;;;;;5023962;28;20029;-57
2021/10/15 14:07:33;;;;;;;16.98;1.30;;;;;;;;;;5035661;28;20041;-58
2021/10/15 14:09:59;;;;;;;6.68;1.27;;;;;;;;;;5042810;28;20044;-58
2021/10/15 14:12:26;;;;;;;14.20;1.73;;;;;;;;;;5024396;28;20052;-57
2021/10/15 14:14:54;;;;;;;11.02;1.20;;;;;;;;;;5022833;28;20070;-58
2021/10/15 14:17:26;;;;;;;;;;;;;;;;;;5020338;28;20520;-58
2021/10/15 14:19:54;;;;;;;6.72;1.08;;;;;;;;;;5020873;28;19936;-58
2021/10/15 14:22:23;;;;;;;8.95;1.23;;;;;;;;;;5022862;28;20055;-58
2021/10/15 14:24:50;;;;;;;9.85;1.30;;;;;;;;;;5040943;28;20049;-55
2021/10/15 14:27:16;;;;;;;8.45;1.20;;;;;;;;;;5030718;28;20041;-58
2021/10/15 14:29:46;;;;;;;7.82;1.33;;;;;;;;;;5022427;28;20038;-58
2021/10/15 14:32:13;;;;;;;13.95;1.45;;;;;;;;;;5024614;28;20041;-55
2021/10/15 14:34:40;;;;;;;8.27;1.33;;;;;;;;;;5042579;28;20073;-57
2021/10/15 14:37:10;;;;;;;9.27;1.05;;;;;;;;;;5036738;28;20041;-58
2021/10/15 14:39:37;;;;;;;15.77;1.65;;;;;;;;;;5042977;28;20045;-58
2021/10/15 14:42:05;;;;;;;10.82;1.45;;;;;;;;;;5036083;28;20065;-59
2021/10/15 14:44:31;;;;;;;16.33;1.58;;;;;;;;;;5023016;28;20122;-57
2021/10/15 14:46:58;;;;;;;10.48;1.70;;;;;;;;;;5022098;28;20029;-58
2021/10/15 14:49:25;;;;;;;10.55;1.73;;;;;;;;;;5017611;28;20406;-57
2021/10/15 14:51:51;;;;;;;13.77;1.60;;;;;;;;;;5043067;28;20037;-58
2021/10/15 14:54:19;;;;;;;8.13;1.33;;;;;;;;;;5035020;28;20041;-57
2021/10/15 14:56:47;;;;;;;8.70;1.83;;;;;;;;;;5041737;28;20117;-57